createdAt,value
2019-02-02T00:00:45.580Z,28.57
2019-02-02T00:03:12.668Z,28.70
2019-02-02T00:05:39.752Z,30.77
2019-02-02T00:08:06.912Z,29.80
2019-02-02T00:10:34.001Z,30.50
2019-02-02T00:13:01.115Z,27.90
2019-02-02T00:15:28.185Z,30.43
2019-02-02T00:17:55.497Z,28.97
2019-02-02T00:20:22.585Z,28.37
2019-02-02T00:22:49.693Z,27.90
2019-02-02T00:25:16.761Z,30.60
2019-02-02T00:27:43.836Z,31.07
2019-02-02T00:30:11.113Z,31.50
2019-02-02T00:32:38.173Z,29.57
2019-02-02T00:35:05.284Z,31.77
2019-02-02T00:37:32.380Z,29.90
2019-02-02T00:39:59.464Z,30.33
2019-02-02T00:42:26.542Z,29.63
2019-02-02T00:44:53.612Z,34.53
2019-02-02T00:47:20.676Z,30.47
2019-02-02T00:49:47.827Z,30.07
2019-02-02T00:52:14.844Z,30.93
2019-02-02T00:54:42.000Z,32.67
2019-02-02T00:57:09.089Z,32.17
2019-02-02T00:59:36.177Z,32.00
2019-02-02T01:02:03.310Z,33.10
2019-02-02T01:04:30.423Z,32.67
2019-02-02T01:06:57.513Z,30.90
2019-02-02T01:09:25.340Z,37.53
2019-02-02T01:11:52.469Z,34.53
2019-02-02T01:14:19.565Z,34.30
2019-02-02T01:16:46.628Z,32.27
2019-02-02T01:19:13.744Z,34.07
2019-02-02T01:21:40.837Z,33.40
2019-02-02T01:24:07.976Z,31.97
2019-02-02T01:26:35.046Z,34.17
2019-02-02T01:29:02.125Z,32.90
2019-02-02T01:31:29.258Z,33.40
2019-02-02T01:33:56.305Z,32.13
2019-02-02T01:36:23.408Z,34.27
2019-02-02T01:38:50.533Z,35.30
2019-02-02T01:41:17.632Z,35.33
2019-02-02T01:43:44.710Z,35.90
2019-02-02T01:46:11.821Z,40.80
2019-02-02T01:48:38.917Z,36.03
2019-02-02T01:51:05.998Z,37.00
2019-02-02T01:53:33.093Z,39.33
2019-02-02T01:56:00.182Z,38.33
2019-02-02T01:58:27.273Z,40.87
2019-02-02T02:00:54.384Z,38.30
2019-02-02T02:03:21.464Z,39.67
2019-02-02T02:05:48.580Z,36.73
2019-02-02T02:08:15.668Z,37.20
2019-02-02T02:10:42.760Z,39.93
2019-02-02T02:13:09.868Z,38.10
2019-02-02T02:15:36.976Z,40.17
2019-02-02T02:18:04.253Z,40.27
2019-02-02T02:20:31.337Z,40.90
2019-02-02T02:22:58.432Z,38.10
2019-02-02T02:25:25.536Z,37.63
2019-02-02T02:27:52.629Z,42.30
2019-02-02T02:30:21.230Z,40.37
2019-02-02T02:32:48.332Z,37.90
2019-02-02T02:35:15.437Z,40.80
2019-02-02T02:37:43.305Z,38.77
2019-02-02T02:40:12.303Z,39.87
2019-02-02T02:42:39.396Z,38.80
2019-02-02T02:45:06.911Z,39.93
2019-02-02T02:47:34.018Z,40.53
2019-02-02T02:50:01.124Z,42.97
2019-02-02T02:52:28.213Z,43.93
2019-02-02T02:54:55.285Z,43.13
2019-02-02T02:57:22.381Z,45.47
2019-02-02T02:59:49.475Z,43.60
2019-02-02T03:02:16.582Z,42.87
2019-02-02T03:04:43.708Z,42.83
2019-02-02T03:07:10.785Z,43.13
2019-02-02T03:09:37.909Z,44.40
2019-02-02T03:12:05.008Z,45.77
2019-02-02T03:14:32.093Z,44.27
2019-02-02T03:16:59.165Z,44.73
2019-02-02T03:19:26.277Z,43.87
2019-02-02T03:21:53.382Z,40.00
2019-02-02T03:24:20.473Z,42.33
2019-02-02T03:26:47.564Z,44.27
2019-02-02T03:29:14.676Z,45.07
2019-02-02T03:31:41.783Z,44.50
2019-02-02T03:34:08.877Z,45.50
2019-02-02T03:36:35.958Z,46.60
2019-02-02T03:39:03.624Z,43.97
2019-02-02T03:41:30.730Z,41.33
2019-02-02T03:43:57.821Z,46.03
2019-02-02T03:46:24.939Z,44.60
2019-02-02T03:48:52.024Z,45.27
2019-02-02T03:51:19.104Z,43.63
2019-02-02T03:53:46.206Z,46.40
2019-02-02T03:56:13.294Z,47.53
2019-02-02T03:58:40.376Z,46.33
2019-02-02T04:01:07.469Z,47.30
2019-02-02T04:03:34.557Z,48.00
2019-02-02T04:06:01.656Z,45.37
2019-02-02T04:08:28.739Z,46.93
2019-02-02T04:10:55.833Z,46.60
2019-02-02T04:13:22.929Z,47.90
2019-02-02T04:15:50.037Z,48.17
2019-02-02T04:18:17.142Z,49.63
2019-02-02T04:20:44.760Z,51.10
2019-02-02T04:23:11.841Z,47.53
2019-02-02T04:25:38.969Z,48.70
2019-02-02T04:28:06.056Z,46.13
2019-02-02T04:30:33.174Z,45.97
2019-02-02T04:33:00.237Z,49.27
2019-02-02T04:35:27.342Z,45.47
2019-02-02T04:37:54.556Z,49.07
2019-02-02T04:40:21.597Z,47.67
2019-02-02T04:42:48.700Z,49.63
2019-02-02T04:45:15.828Z,48.37
2019-02-02T04:47:42.948Z,45.43
2019-02-02T04:50:11.936Z,48.50
2019-02-02T04:52:39.013Z,54.43
2019-02-02T04:55:06.198Z,46.90
2019-02-02T04:57:33.289Z,51.87
2019-02-02T05:00:00.387Z,49.23
2019-02-02T05:02:30.263Z,48.70
2019-02-02T05:04:54.603Z,50.77
2019-02-02T05:07:21.700Z,51.03
2019-02-02T05:09:48.772Z,50.90
2019-02-02T05:12:15.893Z,47.23
2019-02-02T05:14:42.984Z,50.67
2019-02-02T05:17:10.072Z,49.43
2019-02-02T05:19:37.202Z,48.57
2019-02-02T05:22:04.314Z,46.77
2019-02-02T05:24:31.418Z,48.33
2019-02-02T05:26:58.512Z,46.87
2019-02-02T05:29:25.612Z,49.17
2019-02-02T05:31:52.707Z,46.40
2019-02-02T05:34:19.819Z,49.57
2019-02-02T05:36:46.888Z,51.77
2019-02-02T05:39:14.034Z,52.33
2019-02-02T05:41:41.109Z,52.03
2019-02-02T05:44:08.184Z,50.13
2019-02-02T05:46:35.274Z,51.43
2019-02-02T05:49:02.377Z,51.30
2019-02-02T05:51:29.481Z,50.07
2019-02-02T05:53:56.556Z,51.47
2019-02-02T05:56:23.645Z,48.53
2019-02-02T05:58:50.736Z,54.23
2019-02-02T06:01:18.624Z,52.53
2019-02-02T06:03:45.700Z,52.33
2019-02-02T06:06:12.805Z,48.70
2019-02-02T06:08:39.975Z,51.10
2019-02-02T06:11:07.056Z,50.43
2019-02-02T06:13:34.152Z,54.10
2019-02-02T06:16:01.241Z,49.10
2019-02-02T06:18:28.308Z,52.70
2019-02-02T06:20:55.396Z,50.33
2019-02-02T06:23:22.502Z,50.13
2019-02-02T06:25:49.588Z,52.67
2019-02-02T06:28:16.688Z,53.40
2019-02-02T06:30:43.768Z,50.80
2019-02-02T06:33:10.849Z,50.60
2019-02-02T06:35:37.917Z,54.67
2019-02-02T06:38:05.024Z,55.57
2019-02-02T06:40:32.079Z,51.03
2019-02-02T06:42:59.155Z,52.77
2019-02-02T06:45:28.462Z,52.23
2019-02-02T06:47:55.602Z,51.87
2019-02-02T06:50:22.671Z,52.57
2019-02-02T06:52:49.759Z,50.70
2019-02-02T06:55:16.876Z,51.20
2019-02-02T06:57:43.980Z,53.77
2019-02-02T07:00:16.151Z,54.10
2019-02-02T07:02:40.976Z,54.80
2019-02-02T07:05:08.089Z,46.10
2019-02-02T07:07:35.157Z,51.73
2019-02-02T07:10:02.472Z,51.23
2019-02-02T07:12:29.553Z,49.73
2019-02-02T07:14:56.613Z,52.43
2019-02-02T07:17:23.721Z,51.90
2019-02-02T07:19:50.813Z,53.27
2019-02-02T07:22:17.897Z,51.13
2019-02-02T07:24:45.010Z,54.43
2019-02-02T07:27:12.101Z,53.67
2019-02-02T07:29:39.194Z,51.07
2019-02-02T07:32:06.274Z,52.93
2019-02-02T07:34:33.385Z,57.47
2019-02-02T07:37:00.499Z,53.77
2019-02-02T07:39:27.588Z,53.40
2019-02-02T07:41:54.652Z,53.60
2019-02-02T07:44:21.736Z,54.07
2019-02-02T07:46:48.797Z,53.20
2019-02-02T07:49:15.900Z,50.50
2019-02-02T07:51:42.981Z,52.43
2019-02-02T07:54:10.094Z,52.17
2019-02-02T07:56:37.157Z,49.63
2019-02-02T07:59:04.272Z,51.30
2019-02-02T08:01:31.342Z,55.87
2019-02-02T08:03:58.444Z,49.87
2019-02-02T08:06:25.556Z,50.60
2019-02-02T08:08:52.638Z,56.87
2019-02-02T08:11:19.720Z,55.30
2019-02-02T08:13:46.816Z,51.17
2019-02-02T08:16:13.896Z,52.73
2019-02-02T08:18:41.015Z,55.20
2019-02-02T08:21:08.112Z,54.20
2019-02-02T08:23:35.230Z,55.17
2019-02-02T08:26:02.325Z,50.77
2019-02-02T08:28:29.436Z,50.40
2019-02-02T08:30:56.497Z,54.47
2019-02-02T08:33:23.587Z,52.23
2019-02-02T08:35:50.706Z,53.37
2019-02-02T08:38:17.792Z,53.47
2019-02-02T08:40:44.880Z,49.10
2019-02-02T08:43:11.995Z,53.17
2019-02-02T08:45:39.084Z,52.03
2019-02-02T08:48:06.151Z,53.53
2019-02-02T08:50:35.562Z,52.30
2019-02-02T08:53:02.691Z,50.00
2019-02-02T08:55:29.833Z,55.10
2019-02-02T08:57:56.938Z,54.93
2019-02-02T09:00:24.008Z,51.77
2019-02-02T09:02:51.126Z,52.27
2019-02-02T09:05:18.748Z,54.50
2019-02-02T09:07:45.804Z,52.10
2019-02-02T09:10:15.068Z,54.80
2019-02-02T09:12:42.154Z,53.03
2019-02-02T09:15:10.075Z,52.27
2019-02-02T09:17:37.209Z,47.83
2019-02-02T09:20:05.100Z,50.27
2019-02-02T09:22:32.189Z,57.17
2019-02-02T09:24:59.296Z,52.07
2019-02-02T09:27:26.405Z,56.30
2019-02-02T09:29:53.496Z,50.13
2019-02-02T09:32:20.576Z,54.57
2019-02-02T09:34:47.671Z,52.97
2019-02-02T09:37:14.779Z,50.50
2019-02-02T09:39:41.891Z,50.83
2019-02-02T09:42:08.963Z,52.97
2019-02-02T09:44:36.076Z,52.57
2019-02-02T09:47:03.182Z,55.47
2019-02-02T09:49:30.265Z,51.70
2019-02-02T09:51:57.381Z,52.07
2019-02-02T09:54:26.489Z,52.73
2019-02-02T09:56:51.640Z,53.10
2019-02-02T09:59:18.696Z,46.13
2019-02-02T10:01:45.817Z,54.60
2019-02-02T10:04:12.896Z,52.20
2019-02-02T10:06:40.004Z,50.47
2019-02-02T10:09:07.860Z,53.67
2019-02-02T10:11:34.940Z,50.70
2019-02-02T10:14:02.059Z,52.93
2019-02-02T10:16:29.145Z,53.87
2019-02-02T10:18:56.242Z,50.87
2019-02-02T10:21:23.345Z,50.47
2019-02-02T10:23:50.456Z,53.93
2019-02-02T10:26:17.542Z,52.53
2019-02-02T10:28:44.609Z,49.50
2019-02-02T10:31:11.688Z,54.53
2019-02-02T10:33:38.776Z,51.20
2019-02-02T10:36:05.870Z,54.50
2019-02-02T10:38:32.961Z,51.00
2019-02-02T10:41:00.517Z,55.97
2019-02-02T10:43:27.940Z,52.50
2019-02-02T10:45:55.104Z,52.13
2019-02-02T10:48:22.347Z,50.53
2019-02-02T10:50:49.572Z,57.37
2019-02-02T10:53:16.791Z,57.33
2019-02-02T10:55:44.099Z,54.10
2019-02-02T10:58:11.480Z,53.37
2019-02-02T11:00:39.500Z,54.13
2019-02-02T11:03:06.874Z,54.60
2019-02-02T11:05:34.460Z,63.20
2019-02-02T11:08:01.735Z,52.93
2019-02-02T11:10:29.390Z,53.83
2019-02-02T11:12:56.611Z,55.00
2019-02-02T11:15:23.759Z,55.97
2019-02-02T11:17:50.941Z,56.23
2019-02-02T11:20:20.583Z,54.23
2019-02-02T11:22:47.666Z,53.43
2019-02-02T11:25:14.852Z,56.80
2019-02-02T11:27:41.900Z,56.57
2019-02-02T11:30:11.741Z,53.23
2019-02-02T11:32:39.423Z,53.20
2019-02-02T11:35:08.572Z,51.03
2019-02-02T11:37:37.316Z,55.30
2019-02-02T11:40:05.344Z,56.43
2019-02-02T11:42:32.777Z,54.30
2019-02-02T11:45:00.974Z,51.77
2019-02-02T11:47:29.248Z,53.20
2019-02-02T11:49:57.638Z,57.17
2019-02-02T11:52:27.227Z,54.70
2019-02-02T11:54:55.371Z,57.83
2019-02-02T11:57:22.561Z,55.67
2019-02-02T11:59:49.800Z,56.13
2019-02-02T12:02:16.996Z,53.27
2019-02-02T12:04:44.125Z,52.70
2019-02-02T12:07:12.063Z,56.03
2019-02-02T12:09:39.173Z,53.37
2019-02-02T12:12:06.306Z,55.20
2019-02-02T12:14:33.447Z,54.93
2019-02-02T12:17:00.620Z,55.53
2019-02-02T12:19:27.724Z,53.53
2019-02-02T12:21:54.836Z,56.20
2019-02-02T12:24:21.936Z,55.57
2019-02-02T12:26:49.045Z,52.43
2019-02-02T12:29:16.153Z,57.27
2019-02-02T12:31:43.245Z,56.27
2019-02-02T12:34:10.339Z,57.87
2019-02-02T12:36:37.448Z,52.93
2019-02-02T12:39:06.455Z,57.63
2019-02-02T12:41:33.584Z,57.83
2019-02-02T12:44:00.679Z,57.37
2019-02-02T12:46:27.768Z,55.67
2019-02-02T12:48:54.883Z,57.10
2019-02-02T12:51:21.999Z,57.30
2019-02-02T12:53:49.085Z,57.97
2019-02-02T12:56:16.178Z,59.37
2019-02-02T12:58:43.290Z,59.47
2019-02-02T13:01:10.389Z,56.70
2019-02-02T13:03:37.559Z,54.23
2019-02-02T13:06:04.657Z,54.00
2019-02-02T13:08:31.773Z,60.43
2019-02-02T13:10:58.872Z,59.73
2019-02-02T13:13:26.013Z,54.20
2019-02-02T13:15:53.129Z,62.03
2019-02-02T13:18:20.242Z,62.67
2019-02-02T13:20:47.357Z,55.83
2019-02-02T13:23:14.473Z,54.07
2019-02-02T13:25:41.576Z,63.70
2019-02-02T13:28:08.676Z,55.70
2019-02-02T13:30:35.791Z,59.00
2019-02-02T13:33:03.288Z,61.27
2019-02-02T13:35:32.066Z,64.63
2019-02-02T13:37:59.173Z,61.40
2019-02-02T13:40:26.285Z,60.27
2019-02-02T13:42:53.410Z,56.70
2019-02-02T13:45:20.529Z,61.33
2019-02-02T13:47:47.623Z,61.07
2019-02-02T13:50:15.024Z,54.63
2019-02-02T13:52:42.124Z,60.53
2019-02-02T13:55:09.282Z,60.50
2019-02-02T13:57:36.454Z,57.17
2019-02-02T14:00:05.500Z,58.13
2019-02-02T14:02:32.616Z,65.17
2019-02-02T14:04:59.692Z,63.10
2019-02-02T14:07:26.779Z,59.30
2019-02-02T14:09:53.919Z,58.20
2019-02-02T14:12:21.014Z,62.87
2019-02-02T14:14:48.129Z,61.43
2019-02-02T14:17:15.205Z,59.77
2019-02-02T14:19:42.311Z,56.93
2019-02-02T14:22:09.439Z,57.10
2019-02-02T14:24:36.506Z,65.17
2019-02-02T14:27:03.637Z,58.33
2019-02-02T14:29:30.746Z,59.33
2019-02-02T14:31:57.809Z,59.70
2019-02-02T14:34:24.913Z,56.90
2019-02-02T14:36:52.014Z,63.27
2019-02-02T14:39:19.092Z,55.50
2019-02-02T14:41:46.185Z,60.20
2019-02-02T14:44:13.298Z,56.37
2019-02-02T14:46:40.401Z,60.57
2019-02-02T14:49:07.473Z,54.27
2019-02-02T14:51:34.564Z,58.30
2019-02-02T14:54:01.664Z,52.73
2019-02-02T14:56:28.764Z,55.20
2019-02-02T14:58:55.880Z,55.63
2019-02-02T15:01:23.010Z,50.93
2019-02-02T15:03:50.149Z,52.20
2019-02-02T15:06:17.209Z,52.10
2019-02-02T15:08:44.317Z,50.03
2019-02-02T15:11:11.387Z,52.03
2019-02-02T15:13:38.500Z,52.73
2019-02-02T15:16:05.608Z,52.40
2019-02-02T15:18:32.697Z,51.90
2019-02-02T15:20:59.787Z,52.80
2019-02-02T15:23:26.888Z,50.03
2019-02-02T15:25:53.989Z,51.53
2019-02-02T15:28:21.099Z,51.53
2019-02-02T15:30:48.205Z,47.53
2019-02-02T15:33:15.313Z,49.63
2019-02-02T15:35:42.385Z,49.43
2019-02-02T15:38:09.507Z,48.03
2019-02-02T15:40:36.616Z,44.70
2019-02-02T15:43:03.731Z,44.27
2019-02-02T15:45:30.849Z,46.53
2019-02-02T15:47:57.929Z,42.37
2019-02-02T15:50:25.043Z,49.00
2019-02-02T15:52:52.139Z,42.43
2019-02-02T15:55:20.613Z,46.90
2019-02-02T15:57:47.676Z,45.30
2019-02-02T16:00:18.061Z,43.47
2019-02-02T16:02:45.150Z,42.10
2019-02-02T16:05:13.097Z,44.30
2019-02-02T16:07:40.237Z,42.47
2019-02-02T16:10:10.416Z,41.07
2019-02-02T16:12:37.482Z,45.17
2019-02-02T16:15:05.005Z,41.63
2019-02-02T16:17:32.120Z,42.47
2019-02-02T16:19:59.218Z,40.57
2019-02-02T16:22:26.282Z,43.40
2019-02-02T16:24:53.382Z,43.97
2019-02-02T16:27:20.457Z,44.70
2019-02-02T16:29:47.556Z,43.87
2019-02-02T16:32:14.680Z,41.33
2019-02-02T16:34:41.762Z,41.70
2019-02-02T16:37:08.852Z,38.57
2019-02-02T16:39:35.944Z,42.37
2019-02-02T16:42:03.055Z,43.20
2019-02-02T16:44:30.176Z,40.70
2019-02-02T16:46:57.273Z,39.33
2019-02-02T16:49:24.340Z,46.35
2019-02-02T16:51:51.448Z,46.98
2019-02-02T16:54:18.548Z,49.70
2019-02-02T16:56:45.641Z,45.73
2019-02-02T16:59:12.731Z,48.60
2019-02-02T17:01:39.797Z,44.13
2019-02-02T17:04:15.455Z,40.00
2019-02-02T17:06:34.124Z,40.97
2019-02-02T17:09:01.205Z,40.77
2019-02-02T17:11:28.302Z,48.13
2019-02-02T17:13:55.428Z,43.40
2019-02-02T17:16:22.542Z,43.23
2019-02-02T17:18:49.612Z,40.63
2019-02-02T17:21:16.705Z,40.93
2019-02-02T17:23:43.796Z,41.27
2019-02-02T17:26:10.879Z,36.23
2019-02-02T17:28:37.981Z,40.93
2019-02-02T17:31:05.089Z,38.77
2019-02-02T17:33:32.181Z,39.87
2019-02-02T17:35:59.249Z,36.77
2019-02-02T17:38:26.332Z,41.67
2019-02-02T17:40:53.433Z,36.03
2019-02-02T17:43:20.512Z,37.70
2019-02-02T17:45:47.588Z,38.67
2019-02-02T17:48:14.681Z,39.13
2019-02-02T17:50:41.868Z,37.00
2019-02-02T17:53:08.964Z,40.97
2019-02-02T17:55:36.068Z,41.77
2019-02-02T17:58:03.158Z,42.10
2019-02-02T18:00:36.590Z,39.57
2019-02-02T18:03:03.860Z,36.07
2019-02-02T18:05:30.962Z,35.80
2019-02-02T18:07:58.056Z,35.93
2019-02-02T18:10:25.108Z,34.40
2019-02-02T18:12:52.213Z,35.20
2019-02-02T18:15:19.320Z,36.87
2019-02-02T18:17:46.396Z,33.93
2019-02-02T18:20:13.796Z,34.10
2019-02-02T18:22:40.913Z,37.23
2019-02-02T18:25:09.047Z,37.33
2019-02-02T18:27:36.145Z,38.60
2019-02-02T18:30:05.276Z,35.60
2019-02-02T18:32:32.366Z,35.50
2019-02-02T18:34:59.442Z,35.90
2019-02-02T18:37:26.517Z,35.13
2019-02-02T18:39:53.628Z,36.97
2019-02-02T18:42:20.696Z,34.07
2019-02-02T18:44:47.792Z,37.13
2019-02-02T18:47:14.889Z,35.40
2019-02-02T18:49:41.994Z,34.43
2019-02-02T18:52:09.099Z,37.97
2019-02-02T18:54:36.186Z,33.90
2019-02-02T18:57:03.294Z,32.43
2019-02-02T18:59:30.385Z,32.17
2019-02-02T19:01:57.470Z,31.77
2019-02-02T19:04:24.560Z,31.03
2019-02-02T19:06:51.645Z,32.63
2019-02-02T19:09:18.740Z,34.67
2019-02-02T19:11:45.836Z,31.60
2019-02-02T19:14:13.141Z,33.60
2019-02-02T19:16:40.318Z,33.13
2019-02-02T19:19:07.430Z,34.33
2019-02-02T19:21:34.558Z,32.30
2019-02-02T19:24:01.669Z,33.77
2019-02-02T19:26:28.734Z,32.13
2019-02-02T19:28:55.826Z,34.13
2019-02-02T19:31:22.942Z,29.77
2019-02-02T19:33:50.069Z,31.90
2019-02-02T19:36:17.183Z,33.07
2019-02-02T19:38:44.276Z,31.20
2019-02-02T19:41:11.366Z,32.83
2019-02-02T19:43:38.459Z,31.63
2019-02-02T19:46:05.594Z,30.97
2019-02-02T19:48:32.672Z,32.60
2019-02-02T19:50:59.838Z,31.87
2019-02-02T19:53:27.008Z,30.87
2019-02-02T19:55:54.029Z,32.43
2019-02-02T19:58:21.152Z,31.20
2019-02-02T20:00:48.272Z,35.23
2019-02-02T20:03:15.372Z,31.53
2019-02-02T20:05:42.444Z,32.13
2019-02-02T20:08:09.542Z,32.20
2019-02-02T20:10:36.613Z,31.20
2019-02-02T20:13:03.916Z,32.83
2019-02-02T20:15:31.024Z,31.53
2019-02-02T20:18:09.481Z,30.93
2019-02-02T20:20:25.815Z,28.63
2019-02-02T20:22:53.664Z,32.33
2019-02-02T20:25:20.776Z,30.43
2019-02-02T20:27:47.968Z,29.80
2019-02-02T20:30:17.193Z,28.80
2019-02-02T20:32:44.272Z,32.33
2019-02-02T20:35:11.476Z,31.47
2019-02-02T20:37:38.552Z,28.23
2019-02-02T20:40:07.692Z,27.53
2019-02-02T20:42:34.752Z,29.97
2019-02-02T20:45:01.857Z,31.23
2019-02-02T20:47:29.024Z,28.17
2019-02-02T20:49:56.121Z,30.63
2019-02-02T20:52:23.193Z,30.37
2019-02-02T20:54:50.270Z,30.20
2019-02-02T20:57:17.370Z,30.80
2019-02-02T20:59:44.464Z,32.53
2019-02-02T21:02:11.560Z,30.73
2019-02-02T21:04:38.670Z,30.63
2019-02-02T21:07:05.753Z,32.43
2019-02-02T21:09:32.848Z,31.60
2019-02-02T21:11:59.934Z,31.13
2019-02-02T21:14:27.036Z,31.23
2019-02-02T21:16:54.124Z,29.67
2019-02-02T21:19:21.236Z,31.40
2019-02-02T21:21:48.321Z,29.47
2019-02-02T21:24:15.410Z,31.73
2019-02-02T21:26:42.512Z,32.07
2019-02-02T21:29:09.608Z,31.70
2019-02-02T21:31:36.693Z,32.20
2019-02-02T21:34:03.860Z,33.57
2019-02-02T21:36:31.000Z,31.73
2019-02-02T21:38:58.084Z,31.80
2019-02-02T21:41:31.992Z,30.97
2019-02-02T21:43:59.078Z,32.27
2019-02-02T21:46:26.176Z,30.93
2019-02-02T21:48:53.259Z,34.03
2019-02-02T21:51:20.359Z,32.83
2019-02-02T21:53:47.448Z,33.57
2019-02-02T21:56:14.533Z,30.93
2019-02-02T21:58:41.637Z,30.00
2019-02-02T22:01:08.737Z,32.73
2019-02-02T22:03:35.828Z,31.30
2019-02-02T22:06:02.951Z,31.30
2019-02-02T22:08:30.069Z,30.80
2019-02-02T22:10:57.172Z,30.20
2019-02-02T22:13:24.264Z,32.13
2019-02-02T22:15:51.340Z,30.73
2019-02-02T22:18:21.590Z,31.23
2019-02-02T22:20:45.597Z,28.73
2019-02-02T22:23:12.679Z,29.63
2019-02-02T22:25:39.781Z,28.80
2019-02-02T22:28:06.858Z,28.73
2019-02-02T22:30:35.172Z,27.80
2019-02-02T22:33:02.248Z,29.30
2019-02-02T22:35:29.343Z,28.33
2019-02-02T22:37:56.512Z,29.53
2019-02-02T22:40:24.194Z,28.60
2019-02-02T22:42:51.282Z,28.13
2019-02-02T22:45:18.886Z,24.63
2019-02-02T22:47:46.012Z,24.47
2019-02-02T22:50:15.325Z,25.63
2019-02-02T22:52:42.435Z,24.07
2019-02-02T22:55:10.193Z,23.80
2019-02-02T22:57:37.302Z,25.60
2019-02-02T23:00:14.364Z,26.07
2019-02-02T23:02:41.477Z,24.13
2019-02-02T23:05:17.940Z,23.27
2019-02-02T23:07:56.093Z,23.40
2019-02-02T23:10:35.233Z,22.70
2019-02-02T23:13:13.484Z,21.73
2019-02-02T23:15:58.636Z,21.43
2019-02-02T23:18:25.728Z,21.97
2019-02-02T23:20:52.812Z,19.53
2019-02-02T23:23:19.926Z,18.73
2019-02-02T23:25:47.016Z,21.00
2019-02-02T23:28:14.116Z,18.70
2019-02-02T23:30:41.220Z,19.73
2019-02-02T23:33:08.326Z,20.00
2019-02-02T23:35:35.416Z,19.57
2019-02-02T23:38:02.525Z,17.53
2019-02-02T23:40:29.608Z,20.63
2019-02-02T23:42:56.684Z,18.63
2019-02-02T23:45:23.761Z,18.07
2019-02-02T23:47:50.836Z,18.63
2019-02-02T23:50:17.948Z,19.33
2019-02-02T23:52:45.060Z,21.13
2019-02-02T23:55:12.184Z,20.27
2019-02-02T23:57:39.262Z,19.97
